Time;durP1;ratioP1;P1;durP2;ratioP2;P2;SDS_P1;SDS_P2;PMS_P1;PMS_P2;Temp;Humidity;BMP_temperature;BMP_pressure;BME280_temperature;BME280_humidity;BME280_pressure;Samples;Min_cycle;Max_cycle;Signal;HPM_P1;HPM_P2
2022/07/18 00:02:23;;;;;;;;;;;;;;;;;;5056160;28;20377;-60
2022/07/18 00:04:48;;;;;;;;;;;;;;;;;;5054056;28;19922;-61
2022/07/18 00:07:14;;;;;;;;;;;;;;;;;;5059005;28;20157;-60
2022/07/18 00:09:39;;;;;;;;;;;;;;;;;;5053095;28;19920;-61
2022/07/18 00:12:04;;;;;;;;;;;;;;;;;;5053134;28;20381;-60
2022/07/18 00:14:29;;;;;;;;;;;;;;;;;;5061581;28;20514;-61
2022/07/18 00:16:54;;;;;;;;;;;;;;;;;;5056669;28;19963;-60
2022/07/18 00:19:20;;;;;;;;;;;;;;;;;;5058543;28;20003;-60
2022/07/18 00:21:45;;;;;;;;;;;;;;;;;;5054082;28;19924;-60
2022/07/18 00:24:10;;;;;;;;;;;;;;;;;;5054307;28;19969;-60
2022/07/18 00:26:35;;;;;;;;;;;;;;;;;;5062371;28;19921;-60
2022/07/18 00:29:00;;;;;;;;;;;;;;;;;;5054113;28;19920;-60
2022/07/18 00:31:26;;;;;;;;;;;;;;;;;;5061181;28;19921;-60
2022/07/18 00:33:51;;;;;;;;;;;;;;;;;;5054451;28;19916;-60
2022/07/18 00:36:16;;;;;;;;;;;;;;;;;;5054792;28;20719;-60
2022/07/18 00:38:41;;;;;;;;;;;;;;;;;;5062903;28;19946;-60
2022/07/18 00:41:07;;;;;;;;;;;;;;;;;;5054364;28;19916;-60
2022/07/18 00:43:32;;;;;;;;;;;;;;;;;;5060628;28;20245;-60
2022/07/18 00:45:57;;;;;;;;;;;;;;;;;;5055453;28;20399;-59
2022/07/18 00:48:22;;;;;;;;;;;;;;;;;;5053179;28;20338;-60
2022/07/18 00:50:48;;;;;;;;;;;;;;;;;;5060148;28;19927;-60
2022/07/18 00:53:13;;;;;;;;;;;;;;;;;;5053876;28;19916;-59
2022/07/18 00:55:38;;;;;;;;;;;;;;;;;;5058982;28;19916;-60
2022/07/18 00:58:03;;;;;;;;;;;;;;;;;;5055413;28;19920;-60
2022/07/18 01:03:13;;;;;;;;;;;;;;;;;;5060078;28;19923;-60
2022/07/18 01:05:38;;;;;;;;;;;;;;;;;;5051425;28;20379;-60
2022/07/18 01:08:03;;;;;;;;;;;;;;;;;;5057049;28;19924;-60
2022/07/18 01:10:28;;;;;;;;;;;;;;;;;;5056522;28;20324;-60
2022/07/18 01:12:53;;;;;;;;;;;;;;;;;;5053872;28;20277;-59
2022/07/18 01:15:19;;;;;;;;;;;;;;;;;;5060366;28;19916;-60
2022/07/18 01:17:44;;;;;;;;;;;;;;;;;;5033839;28;20316;-60
2022/07/18 01:20:09;;;;;;;;;;;;;;;;;;5057175;28;19977;-60
2022/07/18 01:22:34;;;;;;;;;;;;;;;;;;5053499;28;19920;-60
2022/07/18 01:24:59;;;;;;;;;;;;;;;;;;5035989;28;20019;-60
2022/07/18 01:27:24;;;;;;;;;;;;;;;;;;5058873;28;19920;-60
2022/07/18 01:29:50;;;;;;;;;;;;;;;;;;5054491;28;19920;-60
2022/07/18 01:32:15;;;;;;;;;;;;;;;;;;5058902;28;19959;-61
2022/07/18 01:34:40;;;;;;;;;;;;;;;;;;5054355;28;20011;-60
2022/07/18 01:37:05;;;;;;;;;;;;;;;;;;5054719;28;19912;-60
2022/07/18 01:39:31;;;;;;;;;;;;;;;;;;5042027;28;19916;-59
2022/07/18 01:41:56;;;;;;;;;;;;;;;;;;5055534;28;19991;-60
2022/07/18 01:44:21;;;;;;;;;;;;;;;;;;5059306;28;19916;-59
2022/07/18 01:46:46;;;;;;;;;;;;;;;;;;5056053;28;20297;-59
2022/07/18 01:49:11;;;;;;;;;;;;;;;;;;5053460;28;19920;-60
2022/07/18 01:51:37;;;;;;;;;;;;;;;;;;5059805;28;19962;-60
2022/07/18 01:54:02;;;;;;;;;;;;;;;;;;5051813;28;19912;-60
2022/07/18 01:56:27;;;;;;;;;;;;;;;;;;5057455;28;19920;-60
2022/07/18 01:58:52;;;;;;;;;;;;;;;;;;5056056;28;19959;-60
2022/07/18 02:01:17;;;;;;;;;;;;;;;;;;5053550;28;19927;-59
2022/07/18 02:03:43;;;;;;;;;;;;;;;;;;5058951;28;19924;-60
2022/07/18 02:06:08;;;;;;;;;;;;;;;;;;5053635;28;19951;-60
2022/07/18 02:08:33;;;;;;;;;;;;;;;;;;5056569;28;19972;-60
2022/07/18 02:10:58;;;;;;;;;;;;;;;;;;5055346;28;19916;-60
2022/07/18 02:13:24;;;;;;;;;;;;;;;;;;5055631;28;19916;-60
2022/07/18 02:15:49;;;;;;;;;;;;;;;;;;5058734;28;19920;-60
2022/07/18 02:18:14;;;;;;;;;;;;;;;;;;5051449;28;19917;-61
2022/07/18 02:20:39;;;;;;;;;;;;;;;;;;5057389;28;19923;-60
2022/07/18 02:23:04;;;;;;;;;;;;;;;;;;5054520;28;20643;-60
2022/07/18 02:25:30;;;;;;;;;;;;;;;;;;5054052;28;19990;-60
2022/07/18 02:27:55;;;;;;;;;;;;;;;;;;5057468;28;19939;-59
2022/07/18 02:30:21;;;;;;;;;;;;;;;;;;5051994;28;20415;-60
2022/07/18 02:32:46;;;;;;;;;;;;;;;;;;5053674;28;19925;-61
2022/07/18 02:35:12;;;;;;;;;;;;;;;;;;5056432;28;19923;-60
2022/07/18 02:37:38;;;;;;;;;;;;;;;;;;5051148;28;20360;-60
2022/07/18 02:40:03;;;;;;;;;;;;;;;;;;5059296;28;19916;-60
2022/07/18 02:42:28;;;;;;;;;;;;;;;;;;5049985;28;19924;-61
2022/07/18 02:44:53;;;;;;;;;;;;;;;;;;5053185;28;19955;-61
2022/07/18 02:47:18;;;;;;;;;;;;;;;;;;5057771;28;20458;-60
2022/07/18 02:49:44;;;;;;;;;;;;;;;;;;5053784;28;19920;-60
2022/07/18 02:52:09;;;;;;;;;;;;;;;;;;5060198;28;19924;-60
2022/07/18 02:54:34;;;;;;;;;;;;;;;;;;5057372;28;19916;-60
2022/07/18 02:56:59;;;;;;;;;;;;;;;;;;5040831;28;19962;-62
2022/07/18 02:59:25;;;;;;;;;;;;;;;;;;5062247;28;19943;-60
2022/07/18 03:01:50;;;;;;;;;;;;;;;;;;5056876;28;19916;-61
2022/07/18 03:04:15;;;;;;;;;;;;;;;;;;5063593;28;19916;-60
2022/07/18 03:06:40;;;;;;;;;;;;;;;;;;5055458;28;20015;-60
2022/07/18 03:09:06;;;;;;;;;;;;;;;;;;5056100;28;20301;-60
2022/07/18 03:11:31;;;;;;;;;;;;;;;;;;5061549;28;19916;-60
2022/07/18 03:13:56;;;;;;;;;;;;;;;;;;5053491;28;20597;-59
2022/07/18 03:16:21;;;;;;;;;;;;;;;;;;5061401;28;19920;-59
2022/07/18 03:18:46;;;;;;;;;;;;;;;;;;5056082;28;19916;-59
2022/07/18 03:21:12;;;;;;;;;;;;;;;;;;5056151;28;20315;-61
2022/07/18 03:23:37;;;;;;;;;;;;;;;;;;5043843;28;19947;-59
2022/07/18 03:26:02;;;;;;;;;;;;;;;;;;5055263;28;19935;-60
2022/07/18 03:28:27;;;;;;;;;;;;;;;;;;5061382;28;20047;-60
2022/07/18 03:30:53;;;;;;;;;;;;;;;;;;5054893;28;20355;-60
2022/07/18 03:33:18;;;;;;;;;;;;;;;;;;5056353;28;20011;-61
2022/07/18 03:35:43;;;;;;;;;;;;;;;;;;5059979;28;19916;-59
2022/07/18 03:38:08;;;;;;;;;;;;;;;;;;5053694;28;19921;-60
2022/07/18 03:40:34;;;;;;;;;;;;;;;;;;5061522;28;19916;-61
2022/07/18 03:42:59;;;;;;;;;;;;;;;;;;5055008;28;20610;-60
2022/07/18 03:45:25;;;;;;;;;;;;;;;;;;5054386;28;19931;-59
2022/07/18 03:47:50;;;;;;;;;;;;;;;;;;5061751;28;19927;-60
2022/07/18 03:50:15;;;;;;;;;;;;;;;;;;5055923;28;19916;-59
2022/07/18 03:52:40;;;;;;;;;;;;;;;;;;5058307;28;19923;-59
2022/07/18 03:55:06;;;;;;;;;;;;;;;;;;5056611;28;19916;-60
2022/07/18 03:57:31;;;;;;;;;;;;;;;;;;5055981;28;19923;-60
2022/07/18 03:59:56;;;;;;;;;;;;;;;;;;5064016;28;20528;-60
2022/07/18 04:02:21;;;;;;;;;;;;;;;;;;5055495;28;20289;-60
2022/07/18 04:04:46;;;;;;;;;;;;;;;;;;5060422;28;19916;-59
2022/07/18 04:07:12;;;;;;;;;;;;;;;;;;5055787;28;19967;-59
2022/07/18 04:09:37;;;;;;;;;;;;;;;;;;5053788;28;19920;-59
2022/07/18 04:12:02;;;;;;;;;;;;;;;;;;5061058;28;20502;-59
2022/07/18 04:14:27;;;;;;;;;;;;;;;;;;5054246;28;19931;-60
2022/07/18 04:16:52;;;;;;;;;;;;;;;;;;5060501;28;19920;-60
2022/07/18 04:19:18;;;;;;;;;;;;;;;;;;5055525;28;20341;-59
2022/07/18 04:21:43;;;;;;;;;;;;;;;;;;5037074;28;19927;-58
2022/07/18 04:24:08;;;;;;;;;;;;;;;;;;5062813;28;19924;-59
2022/07/18 04:26:33;;;;;;;;;;;;;;;;;;5053960;28;19954;-59
2022/07/18 04:28:58;;;;;;;;;;;;;;;;;;5061959;28;20394;-59
2022/07/18 04:31:24;;;;;;;;;;;;;;;;;;5054585;28;20504;-59
2022/07/18 04:33:49;;;;;;;;;;;;;;;;;;5052936;28;19916;-60
2022/07/18 04:36:14;;;;;;;;;;;;;;;;;;5038919;28;19920;-60
2022/07/18 04:38:39;;;;;;;;;;;;;;;;;;5053343;28;19946;-60
2022/07/18 04:41:05;;;;;;;;;;;;;;;;;;5060579;28;19916;-60
2022/07/18 04:43:30;;;;;;;;;;;;;;;;;;5054158;28;19917;-60
2022/07/18 04:45:55;;;;;;;;;;;;;;;;;;5033333;28;19924;-60
2022/07/18 04:48:20;;;;;;;;;;;;;;;;;;5061094;28;19971;-60
2022/07/18 04:50:46;;;;;;;;;;;;;;;;;;5054148;28;19923;-60
2022/07/18 04:53:11;;;;;;;;;;;;;;;;;;5061174;28;20277;-60
2022/07/18 04:55:36;;;;;;;;;;;;;;;;;;5052736;28;19941;-61
2022/07/18 04:58:01;;;;;;;;;;;;;;;;;;5055261;28;19920;-60
2022/07/18 05:00:26;;;;;;;;;;;;;;;;;;5061751;28;19978;-60
2022/07/18 05:02:51;;;;;;;;;;;;;;;;;;5053988;28;20006;-60
2022/07/18 05:05:17;;;;;;;;;;;;;;;;;;5058159;28;20378;-60
2022/07/18 05:07:42;;;;;;;;;;;;;;;;;;5053889;28;20384;-60
2022/07/18 05:10:07;;;;;;;;;;;;;;;;;;5054599;28;19971;-58
2022/07/18 05:12:32;;;;;;;;;;;;;;;;;;5059346;28;19986;-61
2022/07/18 05:14:57;;;;;;;;;;;;;;;;;;5050876;28;19920;-61
2022/07/18 05:17:23;;;;;;;;;;;;;;;;;;5059835;28;19917;-61
2022/07/18 05:19:48;;;;;;;;;;;;;;;;;;5055574;28;19920;-61
2022/07/18 05:22:13;;;;;;;;;;;;;;;;;;5056299;28;19932;-60
2022/07/18 05:24:38;;;;;;;;;;;;;;;;;;5060718;28;20014;-61
2022/07/18 05:27:03;;;;;;;;;;;;;;;;;;5052683;28;19939;-61
2022/07/18 05:29:29;;;;;;;;;;;;;;;;;;5060137;28;19920;-61
2022/07/18 05:31:54;;;;;;;;;;;;;;;;;;5052336;28;19917;-60
2022/07/18 05:34:19;;;;;;;;;;;;;;;;;;5053024;28;19917;-59
2022/07/18 05:36:44;;;;;;;;;;;;;;;;;;5059183;28;19942;-61
2022/07/18 05:39:10;;;;;;;;;;;;;;;;;;5052578;28;19917;-60
2022/07/18 05:41:35;;;;;;;;;;;;;;;;;;5059861;28;19923;-60
2022/07/18 05:44:00;;;;;;;;;;;;;;;;;;5054135;28;20057;-59
2022/07/18 05:46:25;;;;;;;;;;;;;;;;;;5060507;28;19927;-59
2022/07/18 05:48:51;;;;;;;;;;;;;;;;;;5060112;28;19938;-60
2022/07/18 05:51:16;;;;;;;;;;;;;;;;;;5059424;28;19967;-59
2022/07/18 05:53:41;;;;;;;;;;;;;;;;;;5060753;28;19950;-59
2022/07/18 05:56:07;;;;;;;;;;;;;;;;;;5059769;28;19923;-59
2022/07/18 05:58:33;;;;;;;;;;;;;;;;;;5042465;28;19951;-60
2022/07/18 06:00:58;;;;;;;;;;;;;;;;;;5061225;28;20012;-60
2022/07/18 06:03:23;;;;;;;;;;;;;;;;;;5062364;28;19916;-59
2022/07/18 06:05:48;;;;;;;;;;;;;;;;;;5059638;28;19927;-60
2022/07/18 06:08:13;;;;;;;;;;;;;;;;;;5059461;28;19920;-60
2022/07/18 06:10:38;;;;;;;;;;;;;;;;;;5061290;28;19916;-60
2022/07/18 06:13:04;;;;;;;;;;;;;;;;;;5060118;28;20495;-60
2022/07/18 06:15:29;;;;;;;;;;;;;;;;;;5045202;28;19917;-60
2022/07/18 06:17:54;;;;;;;;;;;;;;;;;;5057815;28;19924;-61
2022/07/18 06:20:19;;;;;;;;;;;;;;;;;;5051032;28;19916;-60
2022/07/18 06:22:45;;;;;;;;;;;;;;;;;;5039869;28;19922;-61
2022/07/18 06:25:10;;;;;;;;;;;;;;;;;;5046362;28;20057;-60
2022/07/18 06:27:35;;;;;;;;;;;;;;;;;;5062517;28;19925;-60
2022/07/18 06:30:04;;;;;;;;;;;;;;;;;;5064158;28;19994;-59
2022/07/18 06:32:29;;;;;;;;;;;;;;;;;;5051259;28;20492;-59
2022/07/18 06:34:54;;;;;;;;;;;;;;;;;;5063639;28;19992;-60
2022/07/18 06:37:19;;;;;;;;;;;;;;;;;;5026625;28;19913;-60
2022/07/18 06:39:44;;;;;;;;;;;;;;;;;;5058413;28;19924;-60
2022/07/18 06:42:09;;;;;;;;;;;;;;;;;;5056274;28;19947;-60
2022/07/18 06:44:35;;;;;;;;;;;;;;;;;;5064948;28;19916;-61
2022/07/18 06:47:00;;;;;;;;;;;;;;;;;;5064326;28;19970;-60
2022/07/18 06:49:25;;;;;;;;;;;;;;;;;;5064655;28;19959;-61
2022/07/18 06:51:50;;;;;;;;;;;;;;;;;;5045303;28;19916;-61
2022/07/18 06:54:16;;;;;;;;;;;;;;;;;;5063358;28;19913;-61
2022/07/18 06:56:41;;;;;;;;;;;;;;;;;;5062869;28;20716;-61
2022/07/18 06:59:06;;;;;;;;;;;;;;;;;;5044696;28;20272;-60
2022/07/18 07:01:31;;;;;;;;;;;;;;;;;;5062347;28;19913;-61
2022/07/18 07:03:56;;;;;;;;;;;;;;;;;;5061025;28;19943;-61
2022/07/18 07:06:22;;;;;;;;;;;;;;;;;;5064051;28;19916;-60
2022/07/18 07:08:47;;;;;;;;;;;;;;;;;;5063889;28;19924;-60
2022/07/18 07:11:12;;;;;;;;;;;;;;;;;;5062830;28;19970;-61
2022/07/18 07:13:37;;;;;;;;;;;;;;;;;;5046555;28;19917;-60
2022/07/18 07:16:02;;;;;;;;;;;;;;;;;;5062234;28;20361;-60
2022/07/18 07:18:28;;;;;;;;;;;;;;;;;;5059940;28;20076;-61
2022/07/18 07:20:53;;;;;;;;;;;;;;;;;;5063110;28;19993;-60
2022/07/18 07:23:18;;;;;;;;;;;;;;;;;;5063093;28;20028;-61
2022/07/18 07:25:43;;;;;;;;;;;;;;;;;;5062753;28;19971;-61
2022/07/18 07:28:09;;;;;;;;;;;;;;;;;;5060832;28;20273;-61
2022/07/18 07:30:34;;;;;;;;;;;;;;;;;;5063456;28;20428;-61
2022/07/18 07:32:59;;;;;;;;;;;;;;;;;;5060838;28;19920;-60
2022/07/18 07:35:24;;;;;;;;;;;;;;;;;;5060734;28;19927;-61
2022/07/18 07:37:50;;;;;;;;;;;;;;;;;;5060333;28;19916;-61
2022/07/18 07:40:15;;;;;;;;;;;;;;;;;;5064668;28;19916;-61
2022/07/18 07:42:40;;;;;;;;;;;;;;;;;;5061646;28;19932;-61
2022/07/18 07:45:05;;;;;;;;;;;;;;;;;;5062175;28;19916;-62
2022/07/18 07:47:31;;;;;;;;;;;;;;;;;;5061839;28;19966;-61
2022/07/18 07:49:56;;;;;;;;;;;;;;;;;;5061564;28;19927;-61
2022/07/18 07:52:23;;;;;;;;;;;;;;;;;;5063010;28;19919;-61
2022/07/18 07:54:48;;;;;;;;;;;;;;;;;;5062032;28;20392;-61
2022/07/18 07:57:13;;;;;;;;;;;;;;;;;;5063358;28;20046;-61
2022/07/18 07:59:38;;;;;;;;;;;;;;;;;;5061294;28;19939;-61
2022/07/18 08:02:04;;;;;;;;;;;;;;;;;;5044773;28;19920;-62
2022/07/18 08:04:29;;;;;;;;;;;;;;;;;;5062088;28;20020;-61
2022/07/18 08:06:54;;;;;;;;;;;;;;;;;;5062567;28;20254;-61
2022/07/18 08:09:19;;;;;;;;;;;;;;;;;;5048783;28;19924;-61
2022/07/18 08:11:44;;;;;;;;;;;;;;;;;;5061437;28;19989;-62
2022/07/18 08:14:10;;;;;;;;;;;;;;;;;;5062361;28;20912;-61
2022/07/18 08:16:35;;;;;;;;;;;;;;;;;;5061832;28;20095;-62
2022/07/18 08:19:00;;;;;;;;;;;;;;;;;;5062047;28;19923;-61
2022/07/18 08:21:25;;;;;;;;;;;;;;;;;;5062411;28;19920;-61
2022/07/18 08:23:50;;;;;;;;;;;;;;;;;;5060334;28;20010;-61
2022/07/18 08:26:16;;;;;;;;;;;;;;;;;;5061767;28;19962;-61
2022/07/18 08:28:41;;;;;;;;;;;;;;;;;;5062022;28;20017;-61
2022/07/18 08:31:06;;;;;;;;;;;;;;;;;;5046502;28;19923;-61
2022/07/18 08:33:31;;;;;;;;;;;;;;;;;;5043233;28;20724;-61
2022/07/18 08:35:57;;;;;;;;;;;;;;;;;;5061018;28;20444;-61
2022/07/18 08:38:22;;;;;;;;;;;;;;;;;;5061007;28;19916;-61
2022/07/18 08:40:47;;;;;;;;;;;;;;;;;;5061810;28;19917;-62
2022/07/18 08:43:12;;;;;;;;;;;;;;;;;;5061694;28;19916;-62
2022/07/18 08:45:37;;;;;;;;;;;;;;;;;;5060214;28;20277;-63
2022/07/18 08:48:03;;;;;;;;;;;;;;;;;;5060720;28;19927;-61
2022/07/18 08:50:28;;;;;;;;;;;;;;;;;;5061153;28;20276;-62
2022/07/18 08:52:53;;;;;;;;;;;;;;;;;;5061641;28;19920;-62
2022/07/18 08:55:18;;;;;;;;;;;;;;;;;;5061754;28;19913;-62
2022/07/18 08:57:44;;;;;;;;;;;;;;;;;;5060781;28;20266;-61
2022/07/18 09:00:09;;;;;;;;;;;;;;;;;;5060980;28;19959;-61
2022/07/18 09:02:34;;;;;;;;;;;;;;;;;;5060767;28;19935;-61
2022/07/18 09:04:59;;;;;;;;;;;;;;;;;;5060570;28;20385;-61
2022/07/18 09:07:24;;;;;;;;;;;;;;;;;;5061140;28;20384;-61
2022/07/18 09:09:50;;;;;;;;;;;;;;;;;;5060853;28;20454;-62
2022/07/18 09:12:15;;;;;;;;;;;;;;;;;;5060441;28;19912;-61
2022/07/18 09:14:40;;;;;;;;;;;;;;;;;;5060830;28;19924;-62
2022/07/18 09:17:05;;;;;;;;;;;;;;;;;;5060677;28;19916;-62
2022/07/18 09:19:31;;;;;;;;;;;;;;;;;;5061382;28;19924;-61
2022/07/18 09:21:56;;;;;;;;;;;;;;;;;;5059732;28;19936;-61
2022/07/18 09:24:22;;;;;;;;;;;;;;;;;;5061156;28;19916;-61
2022/07/18 09:26:50;;;;;;;;;;;;;;;;;;5060744;28;19921;-61
2022/07/18 09:29:15;;;;;;;;;;;;;;;;;;5060554;28;20007;-62
2022/07/18 09:31:40;;;;;;;;;;;;;;;;;;5060992;28;19977;-61
2022/07/18 09:34:06;;;;;;;;;;;;;;;;;;5060537;28;19917;-61
2022/07/18 09:36:36;;;;;;;;;;;;;;;;;;5061305;28;20439;-62
2022/07/18 09:39:01;;;;;;;;;;;;;;;;;;5059498;28;19983;-62
2022/07/18 09:41:26;;;;;;;;;;;;;;;;;;5061476;28;20638;-62
2022/07/18 09:43:51;;;;;;;;;;;;;;;;;;5059904;28;19967;-62
2022/07/18 09:46:16;;;;;;;;;;;;;;;;;;5060239;28;20258;-62
2022/07/18 09:48:42;;;;;;;;;;;;;;;;;;5060458;28;19921;-62
2022/07/18 09:51:07;;;;;;;;;;;;;;;;;;5060547;28;20277;-61
2022/07/18 09:53:32;;;;;;;;;;;;;;;;;;5060912;28;19916;-62
2022/07/18 09:55:57;;;;;;;;;;;;;;;;;;5060726;28;20268;-62
2022/07/18 09:58:23;;;;;;;;;;;;;;;;;;5058251;28;19916;-61
2022/07/18 10:00:48;;;;;;;;;;;;;;;;;;5046980;28;19913;-61
2022/07/18 10:03:13;;;;;;;;;;;;;;;;;;5039641;28;19985;-61
2022/07/18 10:05:39;;;;;;;;;;;;;;;;;;5039411;28;19927;-61
2022/07/18 10:08:04;;;;;;;;;;;;;;;;;;5057159;28;20023;-61
2022/07/18 10:10:29;;;;;;;;;;;;;;;;;;5058847;28;19959;-61
2022/07/18 10:12:54;;;;;;;;;;;;;;;;;;5047102;28;19923;-61
2022/07/18 10:15:20;;;;;;;;;;;;;;;;;;5059724;28;20335;-61
2022/07/18 10:17:45;;;;;;;;;;;;;;;;;;5043465;28;20327;-61
2022/07/18 10:20:10;;;;;;;;;;;;;;;;;;5059989;28;20320;-61
2022/07/18 10:22:35;;;;;;;;;;;;;;;;;;5043419;28;20367;-61
2022/07/18 10:25:00;;;;;;;;;;;;;;;;;;5059667;28;19927;-61
2022/07/18 10:27:26;;;;;;;;;;;;;;;;;;5060995;28;20432;-61
2022/07/18 10:29:51;;;;;;;;;;;;;;;;;;5062313;28;20029;-62
2022/07/18 10:32:16;;;;;;;;;;;;;;;;;;5059792;28;19917;-62
2022/07/18 10:34:41;;;;;;;;;;;;;;;;;;5060801;28;19916;-61
2022/07/18 10:37:06;;;;;;;;;;;;;;;;;;5059731;28;19923;-62
2022/07/18 10:39:32;;;;;;;;;;;;;;;;;;5049347;28;20002;-61
2022/07/18 10:42:03;;;;;;;;;;;;;;;;;;5060316;28;19924;-60
2022/07/18 10:44:31;;;;;;;;;;;;;;;;;;5059436;28;20003;-61
2022/07/18 10:46:56;;;;;;;;;;;;;;;;;;5061071;28;19920;-62
2022/07/18 10:49:21;;;;;;;;;;;;;;;;;;5059792;28;19921;-61
2022/07/18 10:51:46;;;;;;;;;;;;;;;;;;5061015;28;19981;-61
2022/07/18 10:54:12;;;;;;;;;;;;;;;;;;5061020;28;19971;-61
2022/07/18 10:56:37;;;;;;;;;;;;;;;;;;5060028;28;20007;-61
2022/07/18 10:59:02;;;;;;;;;;;;;;;;;;5060504;28;20291;-61
2022/07/18 11:01:27;;;;;;;;;;;;;;;;;;5061497;28;19917;-61
2022/07/18 11:03:52;;;;;;;;;;;;;;;;;;5060004;28;20108;-61
2022/07/18 11:06:18;;;;;;;;;;;;;;;;;;5061480;28;20072;-61
2022/07/18 11:08:43;;;;;;;;;;;;;;;;;;5059258;28;19920;-61
2022/07/18 11:11:08;;;;;;;;;;;;;;;;;;5044892;28;19922;-61
2022/07/18 11:13:35;;;;;;;;;;;;;;;;;;5049255;28;20685;-61
2022/07/18 11:16:05;;;;;;;;;;;;;;;;;;5063797;28;20218;-61
2022/07/18 11:18:30;;;;;;;;;;;;;;;;;;5063038;28;19920;-61
2022/07/18 11:20:56;;;;;;;;;;;;;;;;;;5063387;28;19916;-61
2022/07/18 11:23:21;;;;;;;;;;;;;;;;;;5064140;28;20323;-61
2022/07/18 11:25:47;;;;;;;;;;;;;;;;;;5063795;28;20392;-60
2022/07/18 11:28:12;;;;;;;;;;;;;;;;;;5029489;28;19962;-61
2022/07/18 11:30:37;;;;;;;;;;;;;;;;;;5063069;28;19927;-61
2022/07/18 11:33:02;;;;;;;;;;;;;;;;;;5062663;28;19924;-61
2022/07/18 11:35:28;;;;;;;;;;;;;;;;;;5063119;28;19935;-61
2022/07/18 11:37:53;;;;;;;;;;;;;;;;;;5063177;28;20314;-61
2022/07/18 11:40:19;;;;;;;;;;;;;;;;;;5063152;28;19912;-61
2022/07/18 11:42:44;;;;;;;;;;;;;;;;;;5054340;28;20050;-61
2022/07/18 11:45:09;;;;;;;;;;;;;;;;;;5043883;28;20094;-62
2022/07/18 11:47:34;;;;;;;;;;;;;;;;;;5064248;28;20486;-61
2022/07/18 11:50:01;;;;;;;;;;;;;;;;;;5062422;28;20106;-61
2022/07/18 11:52:26;;;;;;;;;;;;;;;;;;5063264;28;19991;-61
2022/07/18 11:54:51;;;;;;;;;;;;;;;;;;5062617;28;19924;-62
2022/07/18 11:57:16;;;;;;;;;;;;;;;;;;5064254;28;19916;-61
2022/07/18 11:59:43;;;;;;;;;;;;;;;;;;5063193;28;19912;-62
2022/07/18 12:02:09;;;;;;;;;;;;;;;;;;5062847;28;19944;-61
2022/07/18 12:04:34;;;;;;;;;;;;;;;;;;5063529;28;20009;-62
2022/07/18 12:06:59;;;;;;;;;;;;;;;;;;5063503;28;20177;-62
2022/07/18 12:09:24;;;;;;;;;;;;;;;;;;5062959;28;20026;-62
2022/07/18 12:11:50;;;;;;;;;;;;;;;;;;5063138;28;19928;-62
2022/07/18 12:14:15;;;;;;;;;;;;;;;;;;5064580;28;20026;-62
2022/07/18 12:16:40;;;;;;;;;;;;;;;;;;5041803;28;19971;-62
2022/07/18 12:19:07;;;;;;;;;;;;;;;;;;5063048;28;19917;-62
2022/07/18 12:21:33;;;;;;;;;;;;;;;;;;5062683;28;19920;-62
2022/07/18 12:23:58;;;;;;;;;;;;;;;;;;5062807;28;19932;-61
2022/07/18 12:26:23;;;;;;;;;;;;;;;;;;5062341;28;19916;-61
2022/07/18 12:28:48;;;;;;;;;;;;;;;;;;5062411;28;19920;-62
2022/07/18 12:31:13;;;;;;;;;;;;;;;;;;5061558;28;19923;-62
2022/07/18 12:33:39;;;;;;;;;;;;;;;;;;5062225;28;19916;-61
2022/07/18 12:36:04;;;;;;;;;;;;;;;;;;5062241;28;20443;-62
2022/07/18 12:38:29;;;;;;;;;;;;;;;;;;5045065;28;19924;-62
2022/07/18 12:40:57;;;;;;;;;;;;;;;;;;5062948;28;19920;-62
2022/07/18 12:43:22;;;;;;;;;;;;;;;;;;5058083;28;19970;-61
2022/07/18 12:45:48;;;;;;;;;;;;;;;;;;5060330;28;20015;-62
2022/07/18 12:48:13;;;;;;;;;;;;;;;;;;5059263;28;20046;-62
2022/07/18 12:50:38;;;;;;;;;;;;;;;;;;5060790;28;19916;-62
2022/07/18 12:53:03;;;;;;;;;;;;;;;;;;5056704;28;19920;-62
2022/07/18 12:55:29;;;;;;;;;;;;;;;;;;5062439;28;19917;-62
2022/07/18 12:57:54;;;;;;;;;;;;;;;;;;5059819;28;19928;-61
2022/07/18 13:00:19;;;;;;;;;;;;;;;;;;5060500;28;19912;-62
2022/07/18 13:02:44;;;;;;;;;;;;;;;;;;5049847;28;19985;-62
2022/07/18 13:05:09;;;;;;;;;;;;;;;;;;5063737;28;20400;-62
2022/07/18 13:07:35;;;;;;;;;;;;;;;;;;5062098;28;20265;-62
2022/07/18 13:10:00;;;;;;;;;;;;;;;;;;5061948;28;19927;-62
2022/07/18 13:12:25;;;;;;;;;;;;;;;;;;5061551;28;19916;-62
2022/07/18 13:14:50;;;;;;;;;;;;;;;;;;5061997;28;19921;-63
2022/07/18 13:17:15;;;;;;;;;;;;;;;;;;5061430;28;19916;-62
2022/07/18 13:19:41;;;;;;;;;;;;;;;;;;5059442;28;19967;-62
2022/07/18 13:22:06;;;;;;;;;;;;;;;;;;5060843;28;20377;-63
2022/07/18 13:24:31;;;;;;;;;;;;;;;;;;5047510;28;20628;-62
2022/07/18 13:26:56;;;;;;;;;;;;;;;;;;5045706;28;20650;-62
2022/07/18 13:29:21;;;;;;;;;;;;;;;;;;5059707;28;20364;-61
2022/07/18 13:31:48;;;;;;;;;;;;;;;;;;5029756;28;20415;-62
2022/07/18 13:34:13;;;;;;;;;;;;;;;;;;5057060;28;19948;-62
2022/07/18 13:36:38;;;;;;;;;;;;;;;;;;5060228;28;20031;-61
2022/07/18 13:39:03;;;;;;;;;;;;;;;;;;5060259;28;19932;-61
2022/07/18 13:41:28;;;;;;;;;;;;;;;;;;5038752;28;19923;-62
2022/07/18 13:43:54;;;;;;;;;;;;;;;;;;5059091;28;20233;-61
2022/07/18 13:46:19;;;;;;;;;;;;;;;;;;5057057;28;19912;-62
2022/07/18 13:48:46;;;;;;;;;;;;;;;;;;5060422;28;19917;-62
2022/07/18 13:51:11;;;;;;;;;;;;;;;;;;5061933;28;20310;-62
2022/07/18 13:53:36;;;;;;;;;;;;;;;;;;5058923;28;19913;-62
2022/07/18 13:56:01;;;;;;;;;;;;;;;;;;5061849;28;19966;-62
2022/07/18 13:58:26;;;;;;;;;;;;;;;;;;5045981;28;20646;-62
2022/07/18 14:00:51;;;;;;;;;;;;;;;;;;5060185;28;19973;-62
2022/07/18 14:03:17;;;;;;;;;;;;;;;;;;5059272;28;19938;-62
2022/07/18 14:05:42;;;;;;;;;;;;;;;;;;5060461;28;19921;-61
2022/07/18 14:08:07;;;;;;;;;;;;;;;;;;5059751;28;19940;-62
2022/07/18 14:10:32;;;;;;;;;;;;;;;;;;5059388;28;19913;-62
2022/07/18 14:12:57;;;;;;;;;;;;;;;;;;5037636;28;20367;-62
2022/07/18 14:15:23;;;;;;;;;;;;;;;;;;5059953;28;19920;-62
2022/07/18 14:17:48;;;;;;;;;;;;;;;;;;5060372;28;20011;-63
2022/07/18 14:20:13;;;;;;;;;;;;;;;;;;5061170;28;20335;-62
2022/07/18 14:22:39;;;;;;;;;;;;;;;;;;5060038;28;19920;-62
2022/07/18 14:25:04;;;;;;;;;;;;;;;;;;5061159;28;20010;-63
2022/07/18 14:27:29;;;;;;;;;;;;;;;;;;5061590;28;20321;-62
2022/07/18 14:29:54;;;;;;;;;;;;;;;;;;5061631;28;20109;-63
2022/07/18 14:32:19;;;;;;;;;;;;;;;;;;5062366;28;19917;-63
2022/07/18 14:34:44;;;;;;;;;;;;;;;;;;5060419;28;19912;-63
2022/07/18 14:37:10;;;;;;;;;;;;;;;;;;5060854;28;19921;-63
2022/07/18 14:39:35;;;;;;;;;;;;;;;;;;5040715;28;19927;-63
2022/07/18 14:42:00;;;;;;;;;;;;;;;;;;5061069;28;19958;-64
2022/07/18 14:44:26;;;;;;;;;;;;;;;;;;5061279;28;20003;-62
2022/07/18 14:46:52;;;;;;;;;;;;;;;;;;5064797;28;19916;-64
2022/07/18 14:49:17;;;;;;;;;;;;;;;;;;5065250;28;19914;-64
2022/07/18 14:51:42;;;;;;;;;;;;;;;;;;5036086;28;20465;-64
2022/07/18 14:54:09;;;;;;;;;;;;;;;;;;5063846;28;20366;-63
2022/07/18 14:56:35;;;;;;;;;;;;;;;;;;5059326;28;19945;-63
2022/07/18 14:59:00;;;;;;;;;;;;;;;;;;5061785;28;19924;-63
2022/07/18 15:01:25;;;;;;;;;;;;;;;;;;5060987;28;19961;-63
2022/07/18 15:03:50;;;;;;;;;;;;;;;;;;5059971;28;20010;-63
2022/07/18 15:06:16;;;;;;;;;;;;;;;;;;5061765;28;20697;-64
2022/07/18 15:08:41;;;;;;;;;;;;;;;;;;5031573;28;20392;-64
2022/07/18 15:11:06;;;;;;;;;;;;;;;;;;5061394;28;19916;-64
2022/07/18 15:13:31;;;;;;;;;;;;;;;;;;5062057;28;19916;-63
2022/07/18 15:15:57;;;;;;;;;;;;;;;;;;5063464;28;19951;-63
2022/07/18 15:18:22;;;;;;;;;;;;;;;;;;5062341;28;21709;-64
2022/07/18 15:20:47;;;;;;;;;;;;;;;;;;5049504;28;19916;-62
2022/07/18 15:23:12;;;;;;;;;;;;;;;;;;5064246;28;19921;-63
2022/07/18 15:25:38;;;;;;;;;;;;;;;;;;5066387;28;20883;-63
2022/07/18 15:28:03;;;;;;;;;;;;;;;;;;5056900;28;19978;-63
2022/07/18 15:30:28;;;;;;;;;;;;;;;;;;5060664;28;19916;-63
2022/07/18 15:32:53;;;;;;;;;;;;;;;;;;5062350;28;19917;-63
2022/07/18 15:35:18;;;;;;;;;;;;;;;;;;5061154;28;20013;-63
2022/07/18 15:37:44;;;;;;;;;;;;;;;;;;5056770;28;19939;-62
2022/07/18 15:40:09;;;;;;;;;;;;;;;;;;5061998;28;19926;-64
2022/07/18 15:42:34;;;;;;;;;;;;;;;;;;5062724;28;19916;-64
2022/07/18 15:44:59;;;;;;;;;;;;;;;;;;5061789;28;19946;-64
2022/07/18 15:47:24;;;;;;;;;;;;;;;;;;5061583;28;19916;-63
2022/07/18 15:49:50;;;;;;;;;;;;;;;;;;5061457;28;19912;-63
2022/07/18 15:52:15;;;;;;;;;;;;;;;;;;5061060;28;19962;-64
2022/07/18 15:54:40;;;;;;;;;;;;;;;;;;5063069;28;20436;-63
2022/07/18 15:57:06;;;;;;;;;;;;;;;;;;5062034;28;19920;-63
2022/07/18 15:59:31;;;;;;;;;;;;;;;;;;5062862;28;19924;-63
2022/07/18 16:01:56;;;;;;;;;;;;;;;;;;5060876;28;19917;-67
2022/07/18 16:04:21;;;;;;;;;;;;;;;;;;5029051;28;19962;-63
2022/07/18 16:06:46;;;;;;;;;;;;;;;;;;5063736;28;19924;-62
2022/07/18 16:09:12;;;;;;;;;;;;;;;;;;5059225;28;20499;-63
2022/07/18 16:11:40;;;;;;;;;;;;;;;;;;5048610;28;20493;-63
2022/07/18 16:14:07;;;;;;;;;;;;;;;;;;5061063;28;19919;-62
2022/07/18 16:16:32;;;;;;;;;;;;;;;;;;5061356;28;20220;-63
2022/07/18 16:18:57;;;;;;;;;;;;;;;;;;5060829;28;19927;-63
2022/07/18 16:21:22;;;;;;;;;;;;;;;;;;5061005;28;19921;-62
2022/07/18 16:23:47;;;;;;;;;;;;;;;;;;5063354;28;20442;-63
2022/07/18 16:26:13;;;;;;;;;;;;;;;;;;5060606;28;20373;-63
2022/07/18 16:28:38;;;;;;;;;;;;;;;;;;5061616;28;20280;-63
2022/07/18 16:31:03;;;;;;;;;;;;;;;;;;5060616;28;20427;-64
2022/07/18 16:33:28;;;;;;;;;;;;;;;;;;5060777;28;19908;-63
2022/07/18 16:35:54;;;;;;;;;;;;;;;;;;5060254;28;20179;-62